sensor_id;sensor_type;location;lat;lon;timestamp;pressure;altitude;pressure_sealevel;temperature;humidity
20622;BME280;10470;42.670;23.354;2023-02-20T00:01:32;95128.31;;;11.15;100.00
20622;BME280;10470;42.670;23.354;2023-02-20T00:04:00;95133.47;;;11.13;100.00
20622;BME280;10470;42.670;23.354;2023-02-20T00:06:25;95134.16;;;11.04;100.00
20622;BME280;10470;42.670;23.354;2023-02-20T00:08:51;95140.25;;;11.08;100.00
20622;BME280;10470;42.670;23.354;2023-02-20T00:11:16;95145.06;;;11.04;100.00
20622;BME280;10470;42.670;23.354;2023-02-20T00:13:45;95137.09;;;10.97;100.00
20622;BME280;10470;42.670;23.354;2023-02-20T00:16:12;95141.06;;;10.96;100.00
20622;BME280;10470;42.670;23.354;2023-02-20T00:18:37;95130.78;;;11.00;100.00
20622;BME280;10470;42.670;23.354;2023-02-20T00:21:04;95129.50;;;10.92;100.00
20622;BME280;10470;42.670;23.354;2023-02-20T00:23:33;95144.34;;;10.91;100.00
20622;BME280;10470;42.670;23.354;2023-02-20T00:25:59;95130.16;;;10.96;100.00
20622;BME280;10470;42.670;23.354;2023-02-20T00:28:27;95128.22;;;10.84;100.00
20622;BME280;10470;42.670;23.354;2023-02-20T00:30:54;95131.06;;;10.80;100.00
20622;BME280;10470;42.670;23.354;2023-02-20T00:33:19;95129.97;;;10.78;100.00
20622;BME280;10470;42.670;23.354;2023-02-20T00:35:45;95137.47;;;10.86;100.00
20622;BME280;10470;42.670;23.354;2023-02-20T00:38:10;95144.81;;;10.77;100.00
20622;BME280;10470;42.670;23.354;2023-02-20T00:40:36;95127.38;;;10.74;100.00
20622;BME280;10470;42.670;23.354;2023-02-20T00:43:02;95124.88;;;10.67;100.00
20622;BME280;10470;42.670;23.354;2023-02-20T00:45:27;95123.88;;;10.74;100.00
20622;BME280;10470;42.670;23.354;2023-02-20T00:47:53;95124.56;;;10.65;100.00
20622;BME280;10470;42.670;23.354;2023-02-20T00:50:19;95134.25;;;10.66;100.00
20622;BME280;10470;42.670;23.354;2023-02-20T00:52:45;95129.34;;;10.61;100.00
20622;BME280;10470;42.670;23.354;2023-02-20T00:55:10;95129.91;;;10.56;100.00
20622;BME280;10470;42.670;23.354;2023-02-20T00:57:36;95140.38;;;10.57;100.00
20622;BME280;10470;42.670;23.354;2023-02-20T01:00:02;95138.41;;;10.45;100.00
20622;BME280;10470;42.670;23.354;2023-02-20T01:02:27;95146.91;;;10.47;100.00
20622;BME280;10470;42.670;23.354;2023-02-20T01:04:53;95150.19;;;10.42;100.00
20622;BME280;10470;42.670;23.354;2023-02-20T01:07:19;95158.56;;;10.35;100.00
20622;BME280;10470;42.670;23.354;2023-02-20T01:09:44;95158.91;;;10.37;100.00
20622;BME280;10470;42.670;23.354;2023-02-20T01:12:10;95166.31;;;10.36;100.00
20622;BME280;10470;42.670;23.354;2023-02-20T01:14:36;95171.31;;;10.25;100.00
20622;BME280;10470;42.670;23.354;2023-02-20T01:17:01;95168.84;;;10.31;100.00
20622;BME280;10470;42.670;23.354;2023-02-20T01:19:27;95171.94;;;10.16;100.00
20622;BME280;10470;42.670;23.354;2023-02-20T01:21:53;95182.75;;;10.20;100.00
20622;BME280;10470;42.670;23.354;2023-02-20T01:24:18;95174.59;;;10.20;100.00
20622;BME280;10470;42.670;23.354;2023-02-20T01:26:45;95186.66;;;10.19;100.00
20622;BME280;10470;42.670;23.354;2023-02-20T01:29:12;95194.50;;;10.17;100.00
20622;BME280;10470;42.670;23.354;2023-02-20T01:31:38;95201.81;;;10.20;100.00
20622;BME280;10470;42.670;23.354;2023-02-20T01:34:04;95189.03;;;10.17;100.00
20622;BME280;10470;42.670;23.354;2023-02-20T01:36:30;95191.47;;;10.15;100.00
20622;BME280;10470;42.670;23.354;2023-02-20T01:38:55;95187.31;;;10.23;100.00
20622;BME280;10470;42.670;23.354;2023-02-20T01:41:22;95185.91;;;10.18;100.00
20622;BME280;10470;42.670;23.354;2023-02-20T01:43:48;95176.63;;;10.16;100.00
20622;BME280;10470;42.670;23.354;2023-02-20T01:49:03;95196.13;;;10.14;100.00
20622;BME280;10470;42.670;23.354;2023-02-20T01:51:33;95195.16;;;10.21;100.00
20622;BME280;10470;42.670;23.354;2023-02-20T01:54:00;95191.00;;;10.16;100.00
20622;BME280;10470;42.670;23.354;2023-02-20T01:56:26;95179.69;;;10.18;100.00
20622;BME280;10470;42.670;23.354;2023-02-20T01:58:52;95201.91;;;10.16;100.00
20622;BME280;10470;42.670;23.354;2023-02-20T02:01:18;95193.41;;;10.14;100.00
20622;BME280;10470;42.670;23.354;2023-02-20T02:03:46;95201.25;;;10.12;100.00
20622;BME280;10470;42.670;23.354;2023-02-20T02:06:14;95205.16;;;10.11;100.00
20622;BME280;10470;42.670;23.354;2023-02-20T02:08:41;95192.94;;;9.90;100.00
20622;BME280;10470;42.670;23.354;2023-02-20T02:11:12;95197.09;;;9.95;100.00
20622;BME280;10470;42.670;23.354;2023-02-20T02:13:41;95203.06;;;9.90;100.00
20622;BME280;10470;42.670;23.354;2023-02-20T02:43:07;95210.91;;;9.29;100.00
20622;BME280;10470;42.670;23.354;2023-02-20T02:48:20;95222.59;;;9.13;100.00
20622;BME280;10470;42.670;23.354;2023-02-20T02:50:50;95209.66;;;9.17;100.00
20622;BME280;10470;42.670;23.354;2023-02-20T02:53:18;95219.09;;;9.13;100.00
20622;BME280;10470;42.670;23.354;2023-02-20T02:55:44;95219.53;;;9.11;100.00
20622;BME280;10470;42.670;23.354;2023-02-20T02:58:10;95212.03;;;9.15;100.00
20622;BME280;10470;42.670;23.354;2023-02-20T03:00:59;95219.53;;;9.11;100.00
20622;BME280;10470;42.670;23.354;2023-02-20T03:03:30;95224.97;;;9.11;100.00
20622;BME280;10470;42.670;23.354;2023-02-20T03:06:04;95238.56;;;9.11;100.00
20622;BME280;10470;42.670;23.354;2023-02-20T03:09:00;95246.38;;;9.09;100.00
20622;BME280;10470;42.670;23.354;2023-02-20T03:11:29;95256.72;;;9.14;100.00
20622;BME280;10470;42.670;23.354;2023-02-20T03:13:59;95244.91;;;9.05;100.00
20622;BME280;10470;42.670;23.354;2023-02-20T03:16:52;95245.38;;;9.03;100.00
20622;BME280;10470;42.670;23.354;2023-02-20T03:19:24;95255.38;;;9.06;100.00
20622;BME280;10470;42.670;23.354;2023-02-20T03:21:53;95249.19;;;9.06;100.00
20622;BME280;10470;42.670;23.354;2023-02-20T03:24:22;95260.72;;;8.93;100.00
20622;BME280;10470;42.670;23.354;2023-02-20T03:26:52;95260.31;;;8.95;100.00
20622;BME280;10470;42.670;23.354;2023-02-20T03:29:23;95259.53;;;8.94;100.00
20622;BME280;10470;42.670;23.354;2023-02-20T03:32:06;95266.69;;;8.88;100.00
20622;BME280;10470;42.670;23.354;2023-02-20T03:34:54;95274.91;;;8.85;100.00
20622;BME280;10470;42.670;23.354;2023-02-20T03:37:42;95286.09;;;8.87;100.00
20622;BME280;10470;42.670;23.354;2023-02-20T03:40:28;95284.50;;;8.89;100.00
20622;BME280;10470;42.670;23.354;2023-02-20T03:43:16;95284.75;;;8.79;100.00
20622;BME280;10470;42.670;23.354;2023-02-20T03:45:57;95274.13;;;8.84;100.00
20622;BME280;10470;42.670;23.354;2023-02-20T03:48:54;95285.28;;;8.90;100.00
20622;BME280;10470;42.670;23.354;2023-02-20T03:51:22;95279.41;;;8.75;100.00
20622;BME280;10470;42.670;23.354;2023-02-20T03:53:48;95284.84;;;8.75;100.00
20622;BME280;10470;42.670;23.354;2023-02-20T03:56:18;95278.28;;;8.72;100.00
20622;BME280;10470;42.670;23.354;2023-02-20T03:58:53;95287.34;;;8.66;100.00
20622;BME280;10470;42.670;23.354;2023-02-20T04:01:21;95279.66;;;8.64;100.00
20622;BME280;10470;42.670;23.354;2023-02-20T04:03:48;95302.53;;;8.63;100.00
20622;BME280;10470;42.670;23.354;2023-02-20T04:06:15;95285.50;;;8.63;100.00
20622;BME280;10470;42.670;23.354;2023-02-20T04:08:52;95285.41;;;8.66;100.00
20622;BME280;10470;42.670;23.354;2023-02-20T04:11:31;95297.81;;;8.67;100.00
20622;BME280;10470;42.670;23.354;2023-02-20T04:14:00;95296.97;;;8.70;100.00
20622;BME280;10470;42.670;23.354;2023-02-20T04:16:26;95284.50;;;8.73;100.00
20622;BME280;10470;42.670;23.354;2023-02-20T04:18:52;95284.69;;;8.82;100.00
20622;BME280;10470;42.670;23.354;2023-02-20T04:21:32;95291.28;;;8.81;100.00
20622;BME280;10470;42.670;23.354;2023-02-20T04:24:08;95289.78;;;8.80;100.00
20622;BME280;10470;42.670;23.354;2023-02-20T04:26:35;95322.78;;;8.79;100.00
20622;BME280;10470;42.670;23.354;2023-02-20T04:29:02;95299.88;;;8.80;100.00
20622;BME280;10470;42.670;23.354;2023-02-20T04:31:27;95297.06;;;8.83;100.00
20622;BME280;10470;42.670;23.354;2023-02-20T04:33:53;95296.13;;;8.73;100.00
20622;BME280;10470;42.670;23.354;2023-02-20T04:36:19;95310.81;;;8.76;100.00
20622;BME280;10470;42.670;23.354;2023-02-20T04:38:44;95295.34;;;8.73;100.00
20622;BME280;10470;42.670;23.354;2023-02-20T04:41:10;95290.28;;;8.75;100.00
20622;BME280;10470;42.670;23.354;2023-02-20T04:43:35;95279.97;;;8.66;100.00
20622;BME280;10470;42.670;23.354;2023-02-20T04:46:01;95285.31;;;8.53;100.00
20622;BME280;10470;42.670;23.354;2023-02-20T04:48:26;95292.53;;;8.60;100.00
20622;BME280;10470;42.670;23.354;2023-02-20T04:50:57;95296.59;;;8.52;100.00
20622;BME280;10470;42.670;23.354;2023-02-20T04:53:26;95298.59;;;8.48;100.00
20622;BME280;10470;42.670;23.354;2023-02-20T04:55:52;95287.44;;;8.46;100.00
20622;BME280;10470;42.670;23.354;2023-02-20T04:58:17;95306.09;;;8.44;100.00
20622;BME280;10470;42.670;23.354;2023-02-20T05:00:43;95305.72;;;8.42;100.00
20622;BME280;10470;42.670;23.354;2023-02-20T05:03:08;95319.66;;;8.44;100.00
20622;BME280;10470;42.670;23.354;2023-02-20T05:05:34;95331.28;;;8.44;100.00
20622;BME280;10470;42.670;23.354;2023-02-20T05:08:04;95332.88;;;8.42;100.00
20622;BME280;10470;42.670;23.354;2023-02-20T05:10:32;95328.69;;;8.37;100.00
20622;BME280;10470;42.670;23.354;2023-02-20T05:12:58;95336.00;;;8.40;100.00
20622;BME280;10470;42.670;23.354;2023-02-20T05:15:24;95332.59;;;8.36;100.00
20622;BME280;10470;42.670;23.354;2023-02-20T05:17:50;95331.38;;;8.37;100.00
20622;BME280;10470;42.670;23.354;2023-02-20T05:20:17;95335.78;;;8.31;100.00
20622;BME280;10470;42.670;23.354;2023-02-20T05:22:47;95330.84;;;8.26;100.00
20622;BME280;10470;42.670;23.354;2023-02-20T05:25:13;95331.34;;;8.21;100.00
20622;BME280;10470;42.670;23.354;2023-02-20T05:27:39;95338.72;;;8.20;100.00
20622;BME280;10470;42.670;23.354;2023-02-20T05:30:05;95350.00;;;8.19;100.00
20622;BME280;10470;42.670;23.354;2023-02-20T05:32:31;95343.03;;;8.18;100.00
20622;BME280;10470;42.670;23.354;2023-02-20T05:34:56;95362.72;;;8.22;100.00
20622;BME280;10470;42.670;23.354;2023-02-20T05:37:24;95373.25;;;8.20;100.00
20622;BME280;10470;42.670;23.354;2023-02-20T05:39:50;95391.34;;;8.26;100.00
20622;BME280;10470;42.670;23.354;2023-02-20T05:42:16;95382.06;;;8.24;100.00
20622;BME280;10470;42.670;23.354;2023-02-20T05:44:41;95374.16;;;8.33;100.00
20622;BME280;10470;42.670;23.354;2023-02-20T05:47:07;95370.72;;;8.29;100.00
20622;BME280;10470;42.670;23.354;2023-02-20T05:49:33;95381.59;;;8.29;100.00
20622;BME280;10470;42.670;23.354;2023-02-20T05:52:00;95392.53;;;8.25;100.00
20622;BME280;10470;42.670;23.354;2023-02-20T05:54:26;95382.44;;;8.26;100.00
20622;BME280;10470;42.670;23.354;2023-02-20T05:56:52;95385.50;;;8.28;100.00
20622;BME280;10470;42.670;23.354;2023-02-20T05:59:22;95379.38;;;8.24;100.00
20622;BME280;10470;42.670;23.354;2023-02-20T06:01:48;95365.38;;;8.25;100.00
20622;BME280;10470;42.670;23.354;2023-02-20T06:04:18;95374.63;;;8.28;100.00
20622;BME280;10470;42.670;23.354;2023-02-20T06:06:44;95390.72;;;8.39;100.00
20622;BME280;10470;42.670;23.354;2023-02-20T06:09:11;95388.41;;;8.37;100.00
20622;BME280;10470;42.670;23.354;2023-02-20T06:11:40;95382.38;;;8.49;100.00
20622;BME280;10470;42.670;23.354;2023-02-20T06:14:06;95379.09;;;8.58;100.00
20622;BME280;10470;42.670;23.354;2023-02-20T06:16:33;95397.56;;;8.67;100.00
20622;BME280;10470;42.670;23.354;2023-02-20T06:18:59;95428.56;;;8.69;100.00
20622;BME280;10470;42.670;23.354;2023-02-20T06:21:26;95390.34;;;8.77;100.00
20622;BME280;10470;42.670;23.354;2023-02-20T06:23:53;95389.94;;;8.78;100.00
20622;BME280;10470;42.670;23.354;2023-02-20T06:26:22;95394.31;;;8.92;100.00
20622;BME280;10470;42.670;23.354;2023-02-20T06:28:47;95395.34;;;8.98;100.00
20622;BME280;10470;42.670;23.354;2023-02-20T06:31:20;95410.81;;;9.01;100.00
20622;BME280;10470;42.670;23.354;2023-02-20T06:33:46;95404.94;;;9.03;100.00
20622;BME280;10470;42.670;23.354;2023-02-20T06:36:22;95428.69;;;9.18;100.00
20622;BME280;10470;42.670;23.354;2023-02-20T06:38:48;95413.75;;;9.27;100.00
20622;BME280;10470;42.670;23.354;2023-02-20T06:41:14;95403.28;;;9.25;100.00
20622;BME280;10470;42.670;23.354;2023-02-20T06:43:39;95413.59;;;9.50;100.00
20622;BME280;10470;42.670;23.354;2023-02-20T06:46:05;95418.28;;;9.50;100.00
20622;BME280;10470;42.670;23.354;2023-02-20T06:48:30;95426.34;;;9.37;100.00
20622;BME280;10470;42.670;23.354;2023-02-20T06:50:56;95422.53;;;9.34;100.00
20622;BME280;10470;42.670;23.354;2023-02-20T06:53:22;95404.66;;;9.17;100.00
20622;BME280;10470;42.670;23.354;2023-02-20T06:55:47;95423.06;;;9.09;100.00
20622;BME280;10470;42.670;23.354;2023-02-20T06:58:13;95438.03;;;9.17;100.00
20622;BME280;10470;42.670;23.354;2023-02-20T07:00:38;95429.75;;;9.05;100.00
20622;BME280;10470;42.670;23.354;2023-02-20T07:03:03;95412.66;;;8.88;100.00
20622;BME280;10470;42.670;23.354;2023-02-20T07:05:29;95420.75;;;9.08;100.00
20622;BME280;10470;42.670;23.354;2023-02-20T07:07:54;95434.16;;;8.99;100.00
20622;BME280;10470;42.670;23.354;2023-02-20T07:10:20;95422.91;;;9.16;100.00
20622;BME280;10470;42.670;23.354;2023-02-20T07:12:45;95428.97;;;9.40;100.00
20622;BME280;10470;42.670;23.354;2023-02-20T07:15:12;95445.88;;;9.32;100.00
20622;BME280;10470;42.670;23.354;2023-02-20T07:17:37;95436.69;;;9.26;100.00
20622;BME280;10470;42.670;23.354;2023-02-20T07:20:03;95430.59;;;9.38;100.00
20622;BME280;10470;42.670;23.354;2023-02-20T07:22:29;95433.13;;;9.29;100.00
20622;BME280;10470;42.670;23.354;2023-02-20T07:24:55;95428.63;;;9.38;100.00
20622;BME280;10470;42.670;23.354;2023-02-20T07:27:21;95453.16;;;9.55;100.00
20622;BME280;10470;42.670;23.354;2023-02-20T07:29:48;95438.56;;;9.29;100.00
20622;BME280;10470;42.670;23.354;2023-02-20T07:32:14;95460.16;;;9.36;98.95
20622;BME280;10470;42.670;23.354;2023-02-20T07:34:47;95460.09;;;9.39;99.62
20622;BME280;10470;42.670;23.354;2023-02-20T07:37:13;95463.25;;;9.54;97.33
20622;BME280;10470;42.670;23.354;2023-02-20T07:39:40;95465.53;;;9.39;96.32
20622;BME280;10470;42.670;23.354;2023-02-20T07:42:05;95457.19;;;9.30;94.97
20622;BME280;10470;42.670;23.354;2023-02-20T07:44:31;95464.16;;;9.31;95.46
20622;BME280;10470;42.670;23.354;2023-02-20T07:46:57;95475.19;;;9.24;93.32
20622;BME280;10470;42.670;23.354;2023-02-20T07:49:22;95471.13;;;9.32;91.95
20622;BME280;10470;42.670;23.354;2023-02-20T07:51:48;95482.50;;;9.27;92.22
20622;BME280;10470;42.670;23.354;2023-02-20T07:54:13;95474.09;;;9.38;90.88
20622;BME280;10470;42.670;23.354;2023-02-20T07:56:40;95491.44;;;9.44;90.22
20622;BME280;10470;42.670;23.354;2023-02-20T07:59:05;95486.34;;;9.46;88.94
20622;BME280;10470;42.670;23.354;2023-02-20T08:01:31;95492.94;;;9.65;88.01
20622;BME280;10470;42.670;23.354;2023-02-20T08:03:56;95508.31;;;9.55;87.14
20622;BME280;10470;42.670;23.354;2023-02-20T08:06:21;95511.09;;;9.52;86.68
20622;BME280;10470;42.670;23.354;2023-02-20T08:08:48;95476.91;;;9.34;87.78
20622;BME280;10470;42.670;23.354;2023-02-20T08:11:15;95503.88;;;9.45;86.17
20622;BME280;10470;42.670;23.354;2023-02-20T08:13:41;95499.38;;;9.55;85.78
20622;BME280;10470;42.670;23.354;2023-02-20T08:16:08;95498.91;;;9.76;84.97
20622;BME280;10470;42.670;23.354;2023-02-20T08:18:33;95512.00;;;9.81;82.91
20622;BME280;10470;42.670;23.354;2023-02-20T08:20:59;95490.63;;;9.63;81.57
20622;BME280;10470;42.670;23.354;2023-02-20T08:23:24;95501.44;;;9.67;80.96
20622;BME280;10470;42.670;23.354;2023-02-20T08:25:50;95495.56;;;9.69;81.47
20622;BME280;10470;42.670;23.354;2023-02-20T08:28:16;95508.09;;;9.82;80.73
20622;BME280;10470;42.670;23.354;2023-02-20T08:30:42;95479.78;;;9.96;79.57
20622;BME280;10470;42.670;23.354;2023-02-20T08:33:07;95500.16;;;9.72;78.25
20622;BME280;10470;42.670;23.354;2023-02-20T08:35:33;95475.25;;;9.90;78.47
20622;BME280;10470;42.670;23.354;2023-02-20T08:38:06;95490.38;;;9.91;78.71
20622;BME280;10470;42.670;23.354;2023-02-20T08:40:32;95498.13;;;9.92;78.24
20622;BME280;10470;42.670;23.354;2023-02-20T08:42:58;95495.75;;;9.94;77.85
20622;BME280;10470;42.670;23.354;2023-02-20T08:45:24;95502.72;;;9.95;77.42
20622;BME280;10470;42.670;23.354;2023-02-20T08:47:50;95492.50;;;9.83;77.89
20622;BME280;10470;42.670;23.354;2023-02-20T08:50:18;95499.75;;;9.73;78.91
20622;BME280;10470;42.670;23.354;2023-02-20T08:52:44;95501.47;;;10.00;79.30
20622;BME280;10470;42.670;23.354;2023-02-20T08:55:11;95507.91;;;9.90;78.34
20622;BME280;10470;42.670;23.354;2023-02-20T08:57:36;95524.75;;;10.01;77.20
20622;BME280;10470;42.670;23.354;2023-02-20T09:00:04;95509.78;;;10.25;77.44
20622;BME280;10470;42.670;23.354;2023-02-20T09:02:30;95495.66;;;10.47;74.97
20622;BME280;10470;42.670;23.354;2023-02-20T09:04:55;95494.81;;;10.17;75.00
20622;BME280;10470;42.670;23.354;2023-02-20T09:07:22;95494.81;;;10.34;74.77
20622;BME280;10470;42.670;23.354;2023-02-20T09:09:48;95490.38;;;10.40;72.48
20622;BME280;10470;42.670;23.354;2023-02-20T09:12:15;95499.06;;;10.35;71.11
20622;BME280;10470;42.670;23.354;2023-02-20T09:14:40;95487.06;;;10.32;70.49
20622;BME280;10470;42.670;23.354;2023-02-20T09:17:06;95502.59;;;10.35;69.13
20622;BME280;10470;42.670;23.354;2023-02-20T09:19:31;95488.06;;;10.55;68.88
20622;BME280;10470;42.670;23.354;2023-02-20T09:21:57;95482.09;;;10.60;68.57
20622;BME280;10470;42.670;23.354;2023-02-20T09:24:22;95478.91;;;10.32;68.96
20622;BME280;10470;42.670;23.354;2023-02-20T09:26:48;95491.34;;;10.62;68.77
20622;BME280;10470;42.670;23.354;2023-02-20T09:29:14;95488.41;;;10.57;68.28
20622;BME280;10470;42.670;23.354;2023-02-20T09:31:39;95491.25;;;10.66;68.18
20622;BME280;10470;42.670;23.354;2023-02-20T09:34:05;95492.16;;;10.76;67.80
20622;BME280;10470;42.670;23.354;2023-02-20T09:36:30;95471.13;;;10.47;67.80
20622;BME280;10470;42.670;23.354;2023-02-20T09:38:56;95485.38;;;10.38;67.49
20622;BME280;10470;42.670;23.354;2023-02-20T09:44:09;95471.66;;;10.71;68.90
20622;BME280;10470;42.670;23.354;2023-02-20T09:46:38;95472.09;;;10.69;68.93
20622;BME280;10470;42.670;23.354;2023-02-20T09:49:12;95482.47;;;10.75;69.66
20622;BME280;10470;42.670;23.354;2023-02-20T09:51:42;95481.00;;;10.99;68.81
20622;BME280;10470;42.670;23.354;2023-02-20T09:54:21;95482.50;;;10.87;68.97
20622;BME280;10470;42.670;23.354;2023-02-20T09:56:51;95487.47;;;11.05;69.39
20622;BME280;10470;42.670;23.354;2023-02-20T09:59:21;95492.81;;;10.67;68.37
20622;BME280;10470;42.670;23.354;2023-02-20T10:01:55;95511.34;;;11.01;68.54
20622;BME280;10470;42.670;23.354;2023-02-20T10:04:25;95496.78;;;10.91;68.29
20622;BME280;10470;42.670;23.354;2023-02-20T10:06:54;95508.88;;;11.20;66.56
20622;BME280;10470;42.670;23.354;2023-02-20T10:09:24;95489.91;;;10.58;64.11
20622;BME280;10470;42.670;23.354;2023-02-20T10:14:36;95495.75;;;10.73;63.37
20622;BME280;10470;42.670;23.354;2023-02-20T10:22:27;95491.94;;;11.12;61.54
20622;BME280;10470;42.670;23.354;2023-02-20T10:25:08;95476.34;;;11.12;60.54
20622;BME280;10470;42.670;23.354;2023-02-20T10:27:52;95470.91;;;11.25;59.81
20622;BME280;10470;42.670;23.354;2023-02-20T10:33:46;95470.16;;;11.25;57.87
20622;BME280;10470;42.670;23.354;2023-02-20T10:38:52;95465.03;;;11.27;57.02
20622;BME280;10470;42.670;23.354;2023-02-20T10:43:53;95482.06;;;11.95;56.11
20622;BME280;10470;42.670;23.354;2023-02-20T10:46:33;95478.72;;;11.91;55.87
20622;BME280;10470;42.670;23.354;2023-02-20T10:49:07;95449.84;;;11.64;56.79
20622;BME280;10470;42.670;23.354;2023-02-20T10:51:42;95471.03;;;11.86;56.62
20622;BME280;10470;42.670;23.354;2023-02-20T10:54:14;95468.84;;;12.06;56.64
20622;BME280;10470;42.670;23.354;2023-02-20T10:56:49;95468.03;;;12.18;54.85
20622;BME280;10470;42.670;23.354;2023-02-20T10:59:32;95460.97;;;12.08;54.04
20622;BME280;10470;42.670;23.354;2023-02-20T11:02:04;95458.66;;;12.76;53.37
20622;BME280;10470;42.670;23.354;2023-02-20T11:04:36;95458.84;;;12.60;52.46
20622;BME280;10470;42.670;23.354;2023-02-20T11:07:07;95452.66;;;12.46;52.30
20622;BME280;10470;42.670;23.354;2023-02-20T11:09:34;95448.78;;;12.79;52.43
20622;BME280;10470;42.670;23.354;2023-02-20T11:12:00;95435.41;;;13.25;52.39
20622;BME280;10470;42.670;23.354;2023-02-20T11:14:32;95421.78;;;12.81;51.59
20622;BME280;10470;42.670;23.354;2023-02-20T11:17:03;95434.69;;;12.58;51.92
20622;BME280;10470;42.670;23.354;2023-02-20T11:19:50;95431.25;;;12.89;52.83
20622;BME280;10470;42.670;23.354;2023-02-20T11:22:18;95416.38;;;12.90;52.59
20622;BME280;10470;42.670;23.354;2023-02-20T11:25:17;95422.97;;;12.58;53.00
20622;BME280;10470;42.670;23.354;2023-02-20T11:27:55;95426.19;;;13.31;52.33
20622;BME280;10470;42.670;23.354;2023-02-20T11:30:34;95430.94;;;12.87;52.14
20622;BME280;10470;42.670;23.354;2023-02-20T11:33:05;95423.03;;;13.11;52.44
20622;BME280;10470;42.670;23.354;2023-02-20T11:35:41;95418.00;;;13.81;51.53
20622;BME280;10470;42.670;23.354;2023-02-20T11:43:34;95430.59;;;13.69;51.21
20622;BME280;10470;42.670;23.354;2023-02-20T11:46:20;95431.53;;;13.85;51.12
20622;BME280;10470;42.670;23.354;2023-02-20T11:49:09;95439.84;;;14.22;50.99
20622;BME280;10470;42.670;23.354;2023-02-20T11:54:22;95412.66;;;13.77;50.39
20622;BME280;10470;42.670;23.354;2023-02-20T11:59:37;95427.66;;;14.41;49.70
20622;BME280;10470;42.670;23.354;2023-02-20T12:05:00;95424.81;;;13.76;49.94
20622;BME280;10470;42.670;23.354;2023-02-20T12:12:47;95403.44;;;14.21;48.90
20622;BME280;10470;42.670;23.354;2023-02-20T12:15:18;95413.50;;;14.33;49.08
20622;BME280;10470;42.670;23.354;2023-02-20T12:20:21;95423.06;;;14.01;48.75
20622;BME280;10470;42.670;23.354;2023-02-20T12:37:02;95432.09;;;14.84;47.26
20622;BME280;10470;42.670;23.354;2023-02-20T12:50:30;95414.53;;;15.52;45.50
20622;BME280;10470;42.670;23.354;2023-02-20T13:00:57;95432.44;;;16.05;45.25
20622;BME280;10470;42.670;23.354;2023-02-20T13:06:02;95435.25;;;16.20;43.49
20622;BME280;10470;42.670;23.354;2023-02-20T13:08:33;95416.31;;;16.75;42.49
20622;BME280;10470;42.670;23.354;2023-02-20T13:11:03;95442.91;;;18.99;40.29
20622;BME280;10470;42.670;23.354;2023-02-20T13:16:25;95443.44;;;17.21;41.31
20622;BME280;10470;42.670;23.354;2023-02-20T13:21:47;95440.66;;;18.16;40.92
20622;BME280;10470;42.670;23.354;2023-02-20T13:26:49;95437.53;;;18.08;40.94
20622;BME280;10470;42.670;23.354;2023-02-20T13:29:21;95440.25;;;18.85;39.88
20622;BME280;10470;42.670;23.354;2023-02-20T13:31:52;95438.84;;;18.74;39.79
20622;BME280;10470;42.670;23.354;2023-02-20T13:36:47;95458.66;;;18.11;39.93
20622;BME280;10470;42.670;23.354;2023-02-20T13:44:44;95460.34;;;19.11;39.08
20622;BME280;10470;42.670;23.354;2023-02-20T13:57:49;95450.38;;;19.46;39.37
20622;BME280;10470;42.670;23.354;2023-02-20T14:02:53;95451.59;;;17.60;42.20
20622;BME280;10470;42.670;23.354;2023-02-20T14:05:30;95446.91;;;17.66;42.16
20622;BME280;10470;42.670;23.354;2023-02-20T14:07:57;95454.75;;;17.38;41.33
20622;BME280;10470;42.670;23.354;2023-02-20T14:13:12;95465.69;;;18.94;40.44
20622;BME280;10470;42.670;23.354;2023-02-20T14:15:48;95459.66;;;20.12;38.58
20622;BME280;10470;42.670;23.354;2023-02-20T14:18:29;95455.66;;;16.52;41.97
20622;BME280;10470;42.670;23.354;2023-02-20T14:23:30;95466.38;;;19.99;39.36
20622;BME280;10470;42.670;23.354;2023-02-20T14:26:03;95464.81;;;18.83;40.80
20622;BME280;10470;42.670;23.354;2023-02-20T14:28:33;95468.81;;;17.25;42.03
20622;BME280;10470;42.670;23.354;2023-02-20T14:33:38;95466.88;;;13.83;48.25
20622;BME280;10470;42.670;23.354;2023-02-20T14:36:17;95458.44;;;13.77;48.70
20622;BME280;10470;42.670;23.354;2023-02-20T14:42:14;95451.59;;;12.88;52.17
20622;BME280;10470;42.670;23.354;2023-02-20T14:44:41;95454.91;;;13.05;52.82
20622;BME280;10470;42.670;23.354;2023-02-20T14:47:12;95445.06;;;13.07;53.08
20622;BME280;10470;42.670;23.354;2023-02-20T14:49:39;95447.28;;;12.78;53.66
20622;BME280;10470;42.670;23.354;2023-02-20T14:52:12;95447.78;;;12.85;54.21
20622;BME280;10470;42.670;23.354;2023-02-20T14:54:41;95450.78;;;12.78;54.06
20622;BME280;10470;42.670;23.354;2023-02-20T14:57:11;95462.53;;;12.88;54.33
20622;BME280;10470;42.670;23.354;2023-02-20T14:59:37;95464.34;;;12.82;54.48
20622;BME280;10470;42.670;23.354;2023-02-20T15:04:53;95468.31;;;12.46;55.13
20622;BME280;10470;42.670;23.354;2023-02-20T15:07:24;95472.78;;;12.40;55.99
20622;BME280;10470;42.670;23.354;2023-02-20T15:09:53;95463.88;;;12.27;56.64
20622;BME280;10470;42.670;23.354;2023-02-20T15:12:32;95455.66;;;12.27;57.04
20622;BME280;10470;42.670;23.354;2023-02-20T15:15:10;95469.25;;;12.17;58.11
20622;BME280;10470;42.670;23.354;2023-02-20T15:17:42;95449.47;;;12.13;58.71
20622;BME280;10470;42.670;23.354;2023-02-20T15:22:41;95449.84;;;12.02;59.55
20622;BME280;10470;42.670;23.354;2023-02-20T15:28:11;95452.25;;;11.62;61.82
20622;BME280;10470;42.670;23.354;2023-02-20T15:33:36;95480.41;;;11.46;64.23
20622;BME280;10470;42.670;23.354;2023-02-20T15:36:04;95473.88;;;11.56;64.92
20622;BME280;10470;42.670;23.354;2023-02-20T15:38:33;95483.59;;;11.45;65.45
20622;BME280;10470;42.670;23.354;2023-02-20T15:41:01;95465.59;;;11.47;65.45